createdAt,value
2022-12-31T00:06:40.545Z,96894.56
2022-12-31T00:11:34.750Z,96901.00
2022-12-31T00:26:55.061Z,96925.81
2022-12-31T00:31:46.735Z,96925.63
2022-12-31T00:36:39.908Z,96920.63
2022-12-31T00:41:32.142Z,96925.91
2022-12-31T00:46:25.147Z,96913.44
2022-12-31T00:51:20.291Z,96907.00
2022-12-31T01:12:16.529Z,96913.84
2022-12-31T01:17:08.312Z,96929.94
2022-12-31T01:22:00.038Z,96943.59
2022-12-31T01:26:52.031Z,96949.41
2022-12-31T01:47:05.790Z,96969.91
2022-12-31T01:52:10.835Z,96948.78
2022-12-31T01:57:05.122Z,96944.56
2022-12-31T02:01:57.203Z,96954.00
2022-12-31T02:07:06.902Z,96950.78
2022-12-31T02:11:58.834Z,96964.44
2022-12-31T02:17:11.346Z,96954.78
2022-12-31T02:23:05.130Z,96977.72
2022-12-31T02:28:33.530Z,96969.03
2022-12-31T02:33:43.055Z,96970.16
2022-12-31T02:38:42.204Z,96962.31
2022-12-31T02:43:34.763Z,96946.41
2022-12-31T02:48:46.805Z,96993.25
2022-12-31T02:54:18.763Z,96965.03
2022-12-31T02:59:59.460Z,96973.88
2022-12-31T03:04:55.107Z,96963.44
2022-12-31T03:09:47.227Z,96954.53
2022-12-31T03:14:39.026Z,96970.34
2022-12-31T03:19:49.462Z,96968.41
2022-12-31T03:24:59.723Z,96967.16
2022-12-31T03:29:51.402Z,96987.63
2022-12-31T03:39:48.849Z,97002.19
2022-12-31T03:44:40.542Z,97017.44
2022-12-31T03:49:32.284Z,97013.44
2022-12-31T03:54:23.967Z,97036.59
2022-12-31T03:59:15.693Z,97029.72
2022-12-31T04:04:07.362Z,97023.75
2022-12-31T04:08:59.153Z,97019.50
2022-12-31T04:13:50.826Z,97026.44
2022-12-31T04:18:42.516Z,97022.34
2022-12-31T04:23:34.256Z,97026.66
2022-12-31T04:28:25.935Z,97027.38
2022-12-31T04:33:17.691Z,97032.81
2022-12-31T04:38:09.408Z,97038.06
2022-12-31T04:43:01.102Z,97043.53
2022-12-31T04:47:52.783Z,97049.22
2022-12-31T04:52:44.493Z,97049.34
2022-12-31T04:57:36.228Z,97052.03
2022-12-31T05:02:34.076Z,97069.94
2022-12-31T05:07:26.228Z,97079.31
2022-12-31T05:12:22.024Z,97084.16
2022-12-31T05:22:31.608Z,97059.66
2022-12-31T05:32:30.059Z,97065.63
2022-12-31T05:37:22.999Z,97065.59
2022-12-31T05:42:16.196Z,97060.34
2022-12-31T05:47:08.076Z,97059.28
2022-12-31T05:52:00.656Z,97056.63
2022-12-31T05:56:54.276Z,97063.44
2022-12-31T06:11:58.137Z,97087.06
2022-12-31T06:16:51.084Z,97099.16
2022-12-31T06:21:42.971Z,97098.72
2022-12-31T06:31:42.830Z,97087.66
2022-12-31T06:36:34.973Z,97088.94
2022-12-31T06:41:27.806Z,97112.84
2022-12-31T06:46:21.572Z,97106.22
2022-12-31T06:51:21.715Z,97112.72
2022-12-31T06:56:34.746Z,97116.47
2022-12-31T07:02:13.676Z,97119.19
2022-12-31T07:07:24.866Z,97127.53
2022-12-31T07:12:53.245Z,97129.22
2022-12-31T07:18:18.878Z,97120.59
2022-12-31T07:23:11.162Z,97131.59
2022-12-31T07:28:50.592Z,97118.31
2022-12-31T07:33:45.764Z,97122.44
2022-12-31T07:39:15.737Z,97116.88
2022-12-31T07:44:42.065Z,97120.84
2022-12-31T07:49:36.657Z,97137.69
2022-12-31T08:00:18.034Z,97145.84
2022-12-31T08:05:34.973Z,97157.50
2022-12-31T08:10:49.952Z,97163.09
2022-12-31T08:15:42.751Z,97174.03
2022-12-31T08:20:55.187Z,97186.75
2022-12-31T08:36:44.332Z,97173.28
2022-12-31T08:41:49.027Z,97173.44
2022-12-31T08:52:22.012Z,97189.88
2022-12-31T08:57:44.636Z,97176.47
2022-12-31T09:03:25.009Z,97182.16
2022-12-31T09:14:27.213Z,97167.31
2022-12-31T09:19:23.319Z,97174.56
2022-12-31T09:29:57.100Z,97180.97
2022-12-31T09:35:27.216Z,97176.00
2022-12-31T09:41:01.934Z,97170.19
2022-12-31T09:46:31.826Z,97181.56
2022-12-31T09:51:46.581Z,97176.13
2022-12-31T10:03:01.499Z,97163.97
2022-12-31T10:19:56.430Z,97168.28
2022-12-31T10:25:49.906Z,97148.31
2022-12-31T10:31:11.945Z,97133.13
2022-12-31T10:41:41.470Z,97123.56
2022-12-31T10:47:13.180Z,97109.41
2022-12-31T10:52:27.454Z,97115.72
2022-12-31T10:57:34.404Z,97118.44
2022-12-31T11:03:29.031Z,97120.03
2022-12-31T11:09:27.426Z,97107.84
2022-12-31T11:15:14.056Z,97100.34
2022-12-31T11:32:04.673Z,97079.06
2022-12-31T11:48:42.961Z,97073.16
2022-12-31T11:54:12.758Z,97074.41
2022-12-31T11:59:18.883Z,97067.75
2022-12-31T12:04:13.653Z,97065.22
2022-12-31T12:14:46.720Z,97050.81
2022-12-31T12:19:47.119Z,97047.84
2022-12-31T12:24:40.513Z,97044.47
2022-12-31T12:29:43.649Z,97038.22
2022-12-31T12:34:47.739Z,97035.50
2022-12-31T12:44:48.929Z,97030.72
2022-12-31T12:55:28.820Z,97023.91
2022-12-31T13:06:20.627Z,97024.19
2022-12-31T13:11:45.012Z,97024.19
2022-12-31T13:22:43.848Z,97022.69
2022-12-31T13:27:49.578Z,97006.69
2022-12-31T13:54:48.198Z,97008.47
2022-12-31T14:10:19.312Z,97008.16
2022-12-31T14:21:08.993Z,97018.09
2022-12-31T14:26:16.329Z,97024.59
2022-12-31T14:31:53.317Z,97025.41
2022-12-31T14:43:07.373Z,97024.97
2022-12-31T14:48:40.571Z,97023.72
2022-12-31T15:04:00.046Z,97040.13
2022-12-31T15:09:33.677Z,97041.16
2022-12-31T15:15:14.994Z,97033.72
2022-12-31T15:20:37.535Z,97035.84
2022-12-31T15:25:41.818Z,97048.66
2022-12-31T15:30:51.717Z,97047.59
2022-12-31T15:35:52.981Z,97060.81
2022-12-31T15:40:52.176Z,97052.22
2022-12-31T15:45:53.298Z,97055.81
2022-12-31T15:50:49.764Z,97060.00
2022-12-31T16:01:22.789Z,97058.03
2022-12-31T16:06:18.088Z,97059.91
2022-12-31T16:11:11.617Z,97061.59
2022-12-31T16:21:39.227Z,97074.97
2022-12-31T16:26:50.334Z,97072.94
2022-12-31T16:31:47.920Z,97087.22
2022-12-31T16:36:40.399Z,97079.06
2022-12-31T16:41:44.188Z,97073.78
2022-12-31T16:46:36.964Z,97092.00
2022-12-31T16:51:37.376Z,97095.22
2022-12-31T16:56:40.954Z,97098.09
2022-12-31T17:01:40.949Z,97098.66
2022-12-31T17:06:34.099Z,97104.38
2022-12-31T17:11:38.465Z,97093.94
2022-12-31T17:16:30.759Z,97095.13
2022-12-31T17:21:31.151Z,97100.25
2022-12-31T17:26:28.557Z,97087.03
2022-12-31T17:31:44.566Z,97093.34
2022-12-31T17:36:37.199Z,97094.09
2022-12-31T17:41:29.783Z,97103.19
2022-12-31T17:46:32.806Z,97110.34
2022-12-31T17:51:25.891Z,97089.88
2022-12-31T17:56:23.515Z,97092.81
2022-12-31T18:01:19.802Z,97095.44
2022-12-31T18:06:16.582Z,97108.47
2022-12-31T18:11:19.937Z,97110.78
2022-12-31T18:16:12.716Z,97121.41
2022-12-31T18:21:11.665Z,97127.16
2022-12-31T18:26:03.590Z,97129.78
2022-12-31T18:30:56.244Z,97114.44
2022-12-31T18:36:10.405Z,97122.38
2022-12-31T18:41:05.381Z,97115.94
2022-12-31T18:45:59.082Z,97123.88
2022-12-31T18:50:52.737Z,97126.69
2022-12-31T18:55:52.192Z,97120.47
2022-12-31T19:05:55.516Z,97138.22
2022-12-31T19:15:56.574Z,97126.84
2022-12-31T19:20:48.596Z,97134.00
2022-12-31T19:25:42.395Z,97124.28
2022-12-31T19:41:22.149Z,97141.50
2022-12-31T19:51:26.977Z,97143.19
2022-12-31T19:56:20.487Z,97132.72
2022-12-31T20:01:24.511Z,97133.78
2022-12-31T20:06:22.622Z,97127.56
2022-12-31T20:11:19.539Z,97131.78
2022-12-31T20:16:17.400Z,97131.41
2022-12-31T20:21:21.837Z,97138.50
2022-12-31T20:31:25.280Z,97124.44
2022-12-31T20:36:18.237Z,97122.47
2022-12-31T20:41:23.129Z,97116.63
2022-12-31T20:56:44.052Z,97113.25
2022-12-31T21:02:20.118Z,97118.94
2022-12-31T21:06:57.903Z,97113.81
2022-12-31T21:17:16.371Z,97112.44
2022-12-31T21:27:24.414Z,97140.72
2022-12-31T21:32:19.152Z,97138.50
2022-12-31T22:13:47.752Z,97182.59
2022-12-31T22:23:53.407Z,97180.97
2022-12-31T22:29:02.691Z,97182.38
